Terminal Aerodrome Forecast
Issued by NWS Rapid City, SD

Home | Current Version | Previous Version | Text Only | Print | Product List | Glossary On
Versions: 1 2 3 4 5 6 7 8 9 10 11 12 13 14
000
FTUS43 KUNR 221300 AAA
TAFRAP
TAF AMD
KRAP 221311Z 2213/2312 33026G40KT P6SM BKN120
     FM221800 33035G50KT P6SM BKN100
     FM230000 34026G40KT 5SM -SHSN BKN025 OVC050=

USA.gov is the U.S. government's official web portal to all federal, state and local government web resources and services.